Ashford, CT

5:52 AM EST on December 27, 2014 (GMT -0500)
Gurleyville Green | Change Station
CLOSE
Current Station
Personal Weather Station
Location: Storrs Mansfield, CT
Elevation: 354 ft
Nearby Weather Stations

Elev 354 ft 41.82 °N, 72.22 °W | Updated 15 seconds ago

Clear
Clear
25.0 °F
Feels Like 25 °F
N
0.0
Wind Variable Wind from NNE
Gusts 0.0 mph

Today
High -- | Low -- °F
--% Chance of Precip.
Yesterday
High -- | Low -- °F
Precip. -- in
7:15 AM 4:24 PM
Waxing Crescent, 35% visible
Pressure 30.19 in
Visibility 7.0 miles
Clouds Clear
Windchill 25 °F
Dew Point 24 °F
Humidity 96%
Rainfall 0.00 in
Snow Depth Not available.
UV 0 out of 12
Pollen .10 out of 12
Air Quality Not available.
Flu Activity Not available.
METAR KIJD 270952Z AUTO 05003KT 7SM CLR M04/M06 A3019 RMK AO2 SLP224 I1000 T10391056

More Conditions Fewer Conditions

Pressure 30.19 in
Visibility 7.0 miles
Clouds Clear
Windchill 25 °F
Dew Point 24 °F
Humidity 96%
Rainfall 0.00 in
Snow Depth Not available.
UV 0 out of 12
Pollen .10 out of 12
Air Quality Not available.
Flu Activity Not available.
METAR KIJD 270952Z AUTO 05003KT 7SM CLR M04/M06 A3019 RMK AO2 SLP224 I1000 T10391056

More Conditions Fewer Conditions

10-Day Weather Forecast

Almanac

Astronomy

Dec. 27, 2014 Rise Set
Actual Time
Civil Twilight
Nautical Twilight
Astronomical Twilight
Moon
Length of Visible Light
Length of Day
Tomorrow will be .
, % of the Moon is Illuminated

Today's Extremes

State Highs State Lows

Community

WunderPhotos

Upload Photos

1,780,876 photos uploaded!

WunderBlogs® & News

Nearby

Air Quality

  Air Quality AQ Index Pollutant
Not available.

Snow Depth

Station Depth Elevation

Earthquake Activity

City Distance Mag. Time & Date
Minimum magnitude displayed is 2.5.

Coastal Water Temperatures

Place Temperature

Nearby Weather Stations